createdAt,value
2022-11-25T00:00:37.803Z,35.43
2022-11-25T00:03:08.017Z,35.57
2022-11-25T00:05:38.034Z,34.43
2022-11-25T00:08:08.141Z,38.47
2022-11-25T00:10:38.422Z,37.33
2022-11-25T00:13:08.289Z,38.10
2022-11-25T00:15:40.844Z,35.43
2022-11-25T00:18:10.768Z,38.10
2022-11-25T00:20:41.202Z,36.43
2022-11-25T00:23:11.097Z,40.20
2022-11-25T00:25:41.018Z,36.27
2022-11-25T00:28:10.878Z,37.63
2022-11-25T00:30:43.500Z,36.60
2022-11-25T00:33:13.455Z,34.67
2022-11-25T00:35:43.442Z,37.80
2022-11-25T00:38:14.975Z,38.67
2022-11-25T00:41:04.922Z,38.13
2022-11-25T00:43:50.769Z,39.83
2022-11-25T00:46:23.317Z,37.27
2022-11-25T00:48:53.474Z,38.70
2022-11-25T00:51:23.439Z,38.40
2022-11-25T00:53:58.591Z,36.30
2022-11-25T00:56:30.449Z,38.57
2022-11-25T00:59:01.736Z,38.60
2022-11-25T01:01:34.452Z,37.13
2022-11-25T01:04:05.816Z,38.03
2022-11-25T01:06:36.699Z,37.67
2022-11-25T01:09:07.522Z,37.80
2022-11-25T01:11:38.049Z,37.17
2022-11-25T01:14:08.811Z,38.13
2022-11-25T01:16:41.688Z,40.90
2022-11-25T01:19:11.667Z,40.80
2022-11-25T01:21:42.944Z,43.50
2022-11-25T01:24:16.705Z,40.37
2022-11-25T01:26:47.763Z,41.60
2022-11-25T01:29:19.892Z,39.67
2022-11-25T01:31:52.875Z,38.17
2022-11-25T01:34:26.504Z,40.00
2022-11-25T01:37:00.147Z,38.70
2022-11-25T01:39:32.898Z,44.23
2022-11-25T01:42:04.222Z,38.73
2022-11-25T01:44:36.234Z,40.47
2022-11-25T01:47:17.058Z,40.63
2022-11-25T01:49:51.189Z,38.47
2022-11-25T01:52:25.744Z,38.27
2022-11-25T01:54:59.867Z,38.93
2022-11-25T01:57:35.448Z,42.13
2022-11-25T02:00:07.874Z,42.60
2022-11-25T02:02:52.233Z,41.70
2022-11-25T02:05:33.779Z,40.17
2022-11-25T02:08:04.731Z,38.83
2022-11-25T02:10:36.470Z,39.90
2022-11-25T02:13:06.771Z,41.97
2022-11-25T02:15:39.741Z,41.73
2022-11-25T02:18:12.355Z,41.77
2022-11-25T02:20:42.804Z,39.33
2022-11-25T02:23:22.429Z,40.33
2022-11-25T02:25:56.205Z,40.13
2022-11-25T02:28:29.768Z,41.97
2022-11-25T02:30:59.894Z,39.30
2022-11-25T02:33:30.693Z,42.40
2022-11-25T02:36:02.626Z,41.23
2022-11-25T02:38:36.323Z,38.33
2022-11-25T02:41:14.135Z,40.60
2022-11-25T02:43:46.565Z,40.03
2022-11-25T02:46:22.116Z,38.97
2022-11-25T02:49:10.404Z,39.10
2022-11-25T02:51:43.921Z,37.83
2022-11-25T02:54:14.414Z,38.83
2022-11-25T02:56:47.083Z,37.63
2022-11-25T02:59:17.701Z,40.37
2022-11-25T03:01:49.007Z,37.63
2022-11-25T03:04:19.335Z,38.23
2022-11-25T03:06:49.252Z,37.40
2022-11-25T03:09:19.198Z,37.67
2022-11-25T03:12:04.158Z,38.07
2022-11-25T03:14:34.430Z,41.20
2022-11-25T03:17:04.690Z,38.43
2022-11-25T03:19:34.743Z,38.63
2022-11-25T03:22:04.885Z,37.87
2022-11-25T03:24:36.071Z,44.17
2022-11-25T03:27:09.697Z,38.50
2022-11-25T03:29:39.794Z,37.37
2022-11-25T03:32:10.039Z,39.20
2022-11-25T03:34:41.190Z,38.90
2022-11-25T03:37:11.462Z,39.00
2022-11-25T03:39:41.864Z,44.40
2022-11-25T03:42:14.947Z,41.07
2022-11-25T03:44:45.291Z,38.97
2022-11-25T03:47:15.308Z,50.83
2022-11-25T03:49:45.428Z,44.20
2022-11-25T03:52:15.710Z,41.43
2022-11-25T03:54:46.278Z,42.30
2022-11-25T03:57:27.364Z,38.17
2022-11-25T03:59:57.774Z,40.23
2022-11-25T04:02:27.883Z,37.70
2022-11-25T04:04:58.369Z,39.33
2022-11-25T04:07:28.520Z,39.27
2022-11-25T04:10:00.587Z,42.10
2022-11-25T04:12:52.594Z,37.93
2022-11-25T04:15:27.299Z,38.50
2022-11-25T04:18:00.471Z,38.00
2022-11-25T04:20:30.566Z,42.07
2022-11-25T04:23:06.312Z,43.50
2022-11-25T04:25:39.939Z,42.13
2022-11-25T04:28:17.911Z,41.27
2022-11-25T04:30:48.118Z,39.23
2022-11-25T04:33:18.169Z,38.43
2022-11-25T04:35:50.668Z,38.40
2022-11-25T04:38:20.736Z,35.87
2022-11-25T04:40:51.523Z,36.97
2022-11-25T04:43:27.398Z,36.47
2022-11-25T04:46:13.935Z,36.27
2022-11-25T04:48:47.007Z,36.47
2022-11-25T04:51:18.518Z,38.07
2022-11-25T04:53:50.811Z,37.70
2022-11-25T04:56:22.134Z,40.30
2022-11-25T04:59:09.938Z,36.40
2022-11-25T05:01:43.882Z,36.13
2022-11-25T05:04:34.705Z,38.50
2022-11-25T05:07:05.456Z,39.03
2022-11-25T05:09:36.731Z,38.97
2022-11-25T05:12:20.757Z,38.83
2022-11-25T05:14:53.762Z,38.00
2022-11-25T05:17:28.015Z,37.67
2022-11-25T05:19:59.254Z,36.07
2022-11-25T05:22:32.018Z,39.20
2022-11-25T05:25:02.843Z,39.03
2022-11-25T05:27:33.852Z,37.57
2022-11-25T05:30:13.224Z,37.87
2022-11-25T05:32:44.851Z,40.53
2022-11-25T05:35:14.779Z,40.17
2022-11-25T05:37:46.945Z,41.33
2022-11-25T05:40:17.495Z,39.30
2022-11-25T05:43:10.007Z,40.27
2022-11-25T05:45:44.840Z,39.30
2022-11-25T05:48:16.896Z,39.03
2022-11-25T05:50:47.543Z,38.63
2022-11-25T05:53:21.050Z,37.17
2022-11-25T05:55:58.284Z,39.40
2022-11-25T05:58:49.758Z,36.30
2022-11-25T06:01:22.559Z,37.23
2022-11-25T06:03:52.663Z,35.17
2022-11-25T06:06:23.045Z,37.07
2022-11-25T06:08:53.018Z,36.20
2022-11-25T06:11:25.549Z,38.07
2022-11-25T06:13:55.773Z,36.17
2022-11-25T06:16:29.051Z,38.23
2022-11-25T06:19:17.159Z,37.97
2022-11-25T06:21:47.251Z,40.00
2022-11-25T06:24:17.451Z,40.43
2022-11-25T06:26:48.961Z,42.40
2022-11-25T06:29:19.047Z,38.37
2022-11-25T06:31:55.045Z,36.50
2022-11-25T06:34:42.819Z,37.47
2022-11-25T06:37:22.455Z,39.03
2022-11-25T06:39:52.565Z,34.87
2022-11-25T06:42:22.442Z,36.23
2022-11-25T06:44:52.410Z,36.57
2022-11-25T06:47:25.935Z,37.30
2022-11-25T06:49:55.917Z,36.47
2022-11-25T06:52:25.890Z,35.70
2022-11-25T06:54:55.923Z,34.80
2022-11-25T06:57:25.953Z,35.17
2022-11-25T06:59:55.954Z,35.30
2022-11-25T07:02:32.299Z,35.00
2022-11-25T07:05:04.617Z,34.83
2022-11-25T07:07:37.861Z,33.23
2022-11-25T07:10:13.190Z,32.77
2022-11-25T07:12:43.392Z,33.27
2022-11-25T07:15:13.894Z,31.83
2022-11-25T07:17:46.411Z,34.37
2022-11-25T07:20:16.486Z,38.77
2022-11-25T07:22:46.387Z,34.80
2022-11-25T07:25:16.319Z,37.70
2022-11-25T07:27:46.231Z,37.43
2022-11-25T07:31:21.122Z,34.20
2022-11-25T07:33:09.451Z,33.23
2022-11-25T07:35:39.416Z,41.57
2022-11-25T07:38:12.410Z,39.10
2022-11-25T07:40:42.307Z,34.67
2022-11-25T07:43:12.234Z,37.33
2022-11-25T07:45:42.320Z,44.23
2022-11-25T07:48:16.655Z,33.93
2022-11-25T07:50:46.963Z,35.30
2022-11-25T07:53:16.915Z,37.77
2022-11-25T07:56:20.805Z,36.73
2022-11-25T07:58:57.706Z,33.50
2022-11-25T08:01:52.606Z,33.37
2022-11-25T08:04:25.805Z,37.87
2022-11-25T08:06:56.415Z,33.33
2022-11-25T08:09:26.952Z,31.30
2022-11-25T08:11:56.941Z,31.00
2022-11-25T08:14:26.859Z,29.47
2022-11-25T08:16:56.786Z,37.17
2022-11-25T08:19:31.571Z,30.23
2022-11-25T08:22:01.729Z,30.90
2022-11-25T08:24:31.666Z,29.47
2022-11-25T08:27:01.991Z,33.40
2022-11-25T08:29:31.932Z,33.90
2022-11-25T08:32:01.838Z,32.53
2022-11-25T08:34:34.363Z,30.90
2022-11-25T08:37:07.227Z,27.13
2022-11-25T08:39:52.483Z,29.90
2022-11-25T08:42:23.100Z,27.90
2022-11-25T08:44:55.737Z,27.57
2022-11-25T08:47:25.961Z,28.77
2022-11-25T08:49:58.715Z,24.10
2022-11-25T08:52:29.504Z,23.50
2022-11-25T08:54:59.420Z,23.10
2022-11-25T08:57:29.333Z,24.03
2022-11-25T08:59:59.281Z,26.10
2022-11-25T09:02:29.355Z,27.00
2022-11-25T09:05:01.998Z,24.57
2022-11-25T09:07:31.933Z,25.50
2022-11-25T09:10:01.945Z,25.23
2022-11-25T09:12:31.857Z,22.53
2022-11-25T09:15:01.845Z,22.73
2022-11-25T09:17:31.917Z,25.23
2022-11-25T09:20:05.301Z,25.17
2022-11-25T09:22:35.530Z,24.07
2022-11-25T09:25:05.503Z,23.40
2022-11-25T09:27:35.611Z,23.80
2022-11-25T09:30:05.661Z,21.67
2022-11-25T09:32:35.635Z,22.70
2022-11-25T09:35:08.949Z,22.27
2022-11-25T09:37:38.985Z,24.73
2022-11-25T09:40:11.615Z,22.53
2022-11-25T09:43:04.959Z,23.77
2022-11-25T09:45:58.871Z,24.37
2022-11-25T09:48:44.132Z,25.00
2022-11-25T09:51:21.689Z,24.80
2022-11-25T09:53:56.450Z,24.57
2022-11-25T09:56:34.426Z,26.33
2022-11-25T09:59:10.256Z,25.10
2022-11-25T10:01:49.301Z,25.93
2022-11-25T10:04:26.943Z,26.00
2022-11-25T10:07:03.215Z,22.43
2022-11-25T10:09:37.483Z,23.93
2022-11-25T10:12:15.801Z,26.50
2022-11-25T10:14:50.128Z,24.60
2022-11-25T10:17:27.536Z,27.00
2022-11-25T10:20:03.093Z,23.97
2022-11-25T10:22:40.291Z,25.23
2022-11-25T10:25:17.821Z,26.30
2022-11-25T10:27:52.681Z,24.63
2022-11-25T10:30:25.172Z,24.40
2022-11-25T10:33:02.288Z,24.17
2022-11-25T10:35:37.302Z,24.30
2022-11-25T10:38:19.020Z,24.27
2022-11-25T10:40:52.370Z,22.63
2022-11-25T10:43:25.994Z,24.40
2022-11-25T10:46:11.417Z,24.37
2022-11-25T10:49:01.965Z,23.43
2022-11-25T10:51:40.754Z,23.80
2022-11-25T10:54:27.516Z,25.17
2022-11-25T10:57:00.087Z,24.30
2022-11-25T10:59:34.301Z,23.27
2022-11-25T11:02:22.183Z,24.93
2022-11-25T11:04:58.795Z,23.87
2022-11-25T11:07:33.193Z,32.53
2022-11-25T11:10:23.326Z,24.83
2022-11-25T11:13:05.005Z,26.10
2022-11-25T11:15:36.842Z,24.77
2022-11-25T11:18:23.364Z,26.30
2022-11-25T11:20:56.276Z,26.53
2022-11-25T11:23:27.056Z,26.57
2022-11-25T11:26:05.375Z,25.63
2022-11-25T11:28:42.823Z,25.93
2022-11-25T11:31:22.990Z,26.63
2022-11-25T11:34:00.882Z,25.27
2022-11-25T11:36:44.537Z,26.20
2022-11-25T11:39:35.987Z,26.87
2022-11-25T11:42:15.016Z,26.37
2022-11-25T11:45:01.174Z,26.80
2022-11-25T11:47:39.142Z,27.30
2022-11-25T11:50:27.917Z,28.43
2022-11-25T11:53:04.890Z,27.93
2022-11-25T11:56:34.907Z,29.37
2022-11-25T11:59:07.449Z,30.00
2022-11-25T12:01:47.907Z,30.60
2022-11-25T12:04:23.296Z,30.23
2022-11-25T12:07:03.351Z,28.10
2022-11-25T12:09:40.587Z,33.80
2022-11-25T12:12:19.198Z,29.43
2022-11-25T12:14:54.888Z,27.17
2022-11-25T12:17:31.548Z,28.97
2022-11-25T12:20:08.749Z,27.33
2022-11-25T12:22:47.480Z,26.00
2022-11-25T12:25:22.697Z,25.40
2022-11-25T12:27:59.033Z,28.63
2022-11-25T12:30:37.277Z,29.33
2022-11-25T12:33:13.459Z,29.23
2022-11-25T12:35:55.420Z,29.43
2022-11-25T12:38:33.764Z,27.40
2022-11-25T12:41:09.964Z,26.57
2022-11-25T12:43:45.790Z,28.67
2022-11-25T12:46:32.500Z,30.53
2022-11-25T12:49:03.606Z,30.10
2022-11-25T12:52:08.529Z,31.00
2022-11-25T12:55:02.183Z,29.70
2022-11-25T12:57:53.013Z,29.10
2022-11-25T13:00:42.400Z,28.33
2022-11-25T13:03:57.652Z,27.93
2022-11-25T13:06:53.338Z,29.03
2022-11-25T13:09:45.091Z,28.83
2022-11-25T13:12:27.974Z,29.63
2022-11-25T13:15:28.474Z,27.23
2022-11-25T13:18:02.741Z,28.60
2022-11-25T13:20:54.431Z,29.07
2022-11-25T13:23:29.805Z,28.47
2022-11-25T13:26:29.767Z,28.67
2022-11-25T13:29:00.462Z,27.13
2022-11-25T13:31:35.219Z,29.57
2022-11-25T13:34:28.229Z,27.57
2022-11-25T13:36:59.939Z,29.63
2022-11-25T13:39:37.484Z,26.87
2022-11-25T13:42:20.083Z,27.47
2022-11-25T13:44:54.108Z,27.10
2022-11-25T13:47:39.795Z,27.50
2022-11-25T13:50:22.772Z,26.70
2022-11-25T13:53:05.500Z,29.43
2022-11-25T13:55:40.431Z,32.10
2022-11-25T13:58:22.109Z,28.33
2022-11-25T14:01:29.483Z,27.73
2022-11-25T14:04:02.724Z,28.53
2022-11-25T14:07:04.588Z,29.20
2022-11-25T14:09:47.920Z,27.37
2022-11-25T14:12:43.793Z,29.63
2022-11-25T14:15:35.347Z,27.43
2022-11-25T14:19:11.871Z,31.00
2022-11-25T14:21:44.477Z,27.83
2022-11-25T14:24:25.004Z,27.97
2022-11-25T14:26:55.796Z,29.37
2022-11-25T14:29:33.065Z,32.67
2022-11-25T14:32:08.947Z,27.33
2022-11-25T14:34:42.868Z,26.90
2022-11-25T14:37:19.483Z,28.90
2022-11-25T14:39:55.632Z,27.73
2022-11-25T14:42:28.399Z,28.07
2022-11-25T14:45:01.096Z,27.60
2022-11-25T14:47:37.538Z,30.17
2022-11-25T14:50:34.246Z,34.73
2022-11-25T14:53:09.078Z,27.27
2022-11-25T14:55:40.586Z,25.80
2022-11-25T14:58:15.279Z,27.30
2022-11-25T15:01:01.827Z,30.47
2022-11-25T15:03:31.973Z,27.90
2022-11-25T15:06:05.633Z,27.83
2022-11-25T15:08:42.812Z,29.43
2022-11-25T15:11:17.438Z,29.93
2022-11-25T15:13:49.565Z,29.47
2022-11-25T15:16:24.820Z,30.07
2022-11-25T15:18:58.016Z,28.77
2022-11-25T15:21:32.928Z,32.30
2022-11-25T15:24:03.392Z,30.37
2022-11-25T15:26:36.234Z,30.97
2022-11-25T15:29:14.090Z,31.13
2022-11-25T15:31:49.151Z,34.40
2022-11-25T15:34:20.021Z,30.00
2022-11-25T15:36:54.236Z,31.90
2022-11-25T15:39:30.838Z,31.33
2022-11-25T15:42:08.567Z,32.17
2022-11-25T15:44:43.554Z,32.23
2022-11-25T15:47:24.966Z,33.57
2022-11-25T15:50:03.178Z,32.20
2022-11-25T15:52:36.373Z,34.23
2022-11-25T15:55:10.072Z,32.03
2022-11-25T15:57:41.932Z,31.97
2022-11-25T16:00:20.650Z,33.27
2022-11-25T16:02:58.312Z,31.30
2022-11-25T16:05:34.617Z,31.70
2022-11-25T16:08:35.094Z,27.17
2022-11-25T16:11:19.547Z,27.97
2022-11-25T16:13:50.987Z,57.07
2022-11-25T16:16:26.875Z,29.23
2022-11-25T16:19:13.594Z,36.13
2022-11-25T16:21:56.397Z,34.37
2022-11-25T16:24:35.593Z,29.63
2022-11-25T16:27:09.345Z,28.80
2022-11-25T16:29:41.828Z,27.27
2022-11-25T16:32:17.776Z,31.23
2022-11-25T16:34:50.591Z,29.13
2022-11-25T16:37:20.779Z,29.10
2022-11-25T16:39:50.849Z,35.07
2022-11-25T16:42:23.481Z,33.90
2022-11-25T16:44:55.219Z,31.73
2022-11-25T16:47:26.264Z,26.97
2022-11-25T16:49:58.823Z,26.33
2022-11-25T16:52:28.787Z,28.63
2022-11-25T16:54:58.798Z,26.60
2022-11-25T16:57:28.767Z,27.60
2022-11-25T17:00:02.308Z,27.70
2022-11-25T17:02:32.379Z,26.83
2022-11-25T17:05:18.793Z,28.50
2022-11-25T17:07:50.279Z,29.10
2022-11-25T17:10:21.605Z,28.20
2022-11-25T17:12:52.309Z,30.33
2022-11-25T17:15:26.343Z,27.90
2022-11-25T17:17:56.427Z,28.20
2022-11-25T17:20:29.748Z,28.60
2022-11-25T17:23:00.237Z,26.80
2022-11-25T17:25:36.488Z,26.37
2022-11-25T17:28:07.586Z,27.73
2022-11-25T17:30:43.501Z,27.20
2022-11-25T17:33:17.874Z,28.57
2022-11-25T17:35:50.643Z,26.03
2022-11-25T17:38:22.753Z,27.80
2022-11-25T17:40:53.229Z,27.07
2022-11-25T17:43:24.006Z,28.50
2022-11-25T17:45:54.047Z,34.23
2022-11-25T17:48:24.039Z,32.50
2022-11-25T17:50:56.695Z,30.70
2022-11-25T17:53:26.673Z,29.67
2022-11-25T17:55:56.689Z,28.17
2022-11-25T17:58:26.688Z,29.60
2022-11-25T18:00:56.762Z,28.30
2022-11-25T18:03:27.739Z,27.60
2022-11-25T18:06:00.244Z,28.70
2022-11-25T18:08:30.243Z,28.40
2022-11-25T18:11:01.264Z,27.70
2022-11-25T18:13:33.582Z,27.63
2022-11-25T18:16:03.764Z,25.17
2022-11-25T18:18:33.841Z,27.50
2022-11-25T18:21:06.918Z,25.33
2022-11-25T18:23:36.849Z,25.00
2022-11-25T18:26:07.073Z,26.33
2022-11-25T18:28:37.122Z,25.30
2022-11-25T18:31:08.722Z,29.17
2022-11-25T18:33:38.776Z,28.50
2022-11-25T18:36:15.525Z,28.90
2022-11-25T18:38:45.661Z,28.13
2022-11-25T18:41:22.894Z,28.53
2022-11-25T18:43:53.634Z,29.03
2022-11-25T18:46:23.845Z,27.90
2022-11-25T18:48:54.643Z,28.70
2022-11-25T18:51:27.369Z,28.80
2022-11-25T18:53:57.298Z,28.23
2022-11-25T18:56:27.438Z,30.53
2022-11-25T18:58:59.907Z,27.70
2022-11-25T19:01:30.710Z,27.97
2022-11-25T19:04:00.776Z,27.03
2022-11-25T19:06:33.780Z,28.20
2022-11-25T19:09:04.046Z,30.07
2022-11-25T19:11:38.227Z,29.13
2022-11-25T19:14:13.532Z,28.97
2022-11-25T19:16:44.099Z,29.50
2022-11-25T19:19:17.471Z,29.03
2022-11-25T19:21:50.355Z,30.47
2022-11-25T19:24:20.387Z,31.73
2022-11-25T19:26:53.573Z,31.73
2022-11-25T19:29:25.780Z,33.37
2022-11-25T19:31:56.696Z,33.57
2022-11-25T19:34:32.088Z,35.37
2022-11-25T19:37:04.710Z,34.87
2022-11-25T19:39:37.845Z,31.43
2022-11-25T19:42:07.890Z,31.13
2022-11-25T19:44:38.119Z,31.03
2022-11-25T19:47:15.098Z,31.30
2022-11-25T19:49:46.640Z,31.47
2022-11-25T19:52:22.835Z,33.37
2022-11-25T19:54:53.023Z,35.43
2022-11-25T19:57:25.119Z,35.00
2022-11-25T19:59:55.158Z,35.87
2022-11-25T20:02:28.884Z,33.90
2022-11-25T20:05:00.076Z,44.03
2022-11-25T20:07:32.856Z,34.97
2022-11-25T20:10:17.220Z,32.23
2022-11-25T20:12:47.414Z,33.47
2022-11-25T20:15:18.030Z,33.50
2022-11-25T20:17:50.505Z,33.40
2022-11-25T20:20:25.137Z,33.10
2022-11-25T20:23:02.742Z,32.60
2022-11-25T20:25:33.508Z,33.97
2022-11-25T20:28:03.443Z,32.17
2022-11-25T20:30:33.452Z,34.00
2022-11-25T20:33:03.491Z,33.87
2022-11-25T20:35:33.490Z,32.80
2022-11-25T20:38:06.152Z,34.40
2022-11-25T20:40:42.114Z,32.27
2022-11-25T20:43:29.670Z,31.10
2022-11-25T20:46:01.341Z,30.80
2022-11-25T20:48:32.420Z,29.10
2022-11-25T20:51:03.899Z,31.47
2022-11-25T20:53:38.011Z,32.10
2022-11-25T20:56:08.213Z,29.27
2022-11-25T20:58:38.226Z,29.37
2022-11-25T21:01:08.583Z,29.73
2022-11-25T21:03:38.664Z,30.00
2022-11-25T21:06:20.758Z,29.63
2022-11-25T21:08:55.467Z,30.97
2022-11-25T21:11:26.600Z,31.63
2022-11-25T21:13:56.800Z,33.30
2022-11-25T21:16:27.713Z,30.97
2022-11-25T21:18:57.850Z,30.00
2022-11-25T21:21:33.263Z,29.23
2022-11-25T21:24:14.170Z,32.30
2022-11-25T21:26:44.160Z,29.97
2022-11-25T21:29:17.431Z,29.73
2022-11-25T21:31:47.585Z,32.17
2022-11-25T21:34:17.989Z,32.17
2022-11-25T21:36:51.715Z,32.87
2022-11-25T21:39:31.604Z,33.00
2022-11-25T21:42:05.210Z,30.90
2022-11-25T21:44:39.207Z,33.03
2022-11-25T21:47:16.029Z,33.93
2022-11-25T21:49:46.387Z,32.10
2022-11-25T21:52:16.605Z,31.97
2022-11-25T21:54:49.608Z,31.43
2022-11-25T21:57:20.902Z,31.10
2022-11-25T21:59:51.512Z,31.03
2022-11-25T22:02:24.142Z,33.80
2022-11-25T22:04:55.032Z,31.83
2022-11-25T22:07:29.311Z,31.83
2022-11-25T22:10:03.253Z,31.90
2022-11-25T22:12:40.906Z,32.47
2022-11-25T22:15:17.211Z,31.47
2022-11-25T22:17:47.738Z,31.37
2022-11-25T22:20:26.837Z,30.80
2022-11-25T22:22:57.160Z,32.87
2022-11-25T22:25:31.680Z,32.33
2022-11-25T22:28:01.653Z,31.10
2022-11-25T22:30:31.630Z,29.10
2022-11-25T22:33:04.407Z,31.07
2022-11-25T22:35:34.341Z,31.00
2022-11-25T22:38:04.884Z,28.60
2022-11-25T22:40:37.949Z,30.07
2022-11-25T22:43:07.944Z,33.83
2022-11-25T22:45:38.089Z,31.93
2022-11-25T22:48:09.320Z,30.80
2022-11-25T22:50:39.324Z,30.27
2022-11-25T22:53:15.185Z,35.33
2022-11-25T22:55:50.132Z,36.50
2022-11-25T22:58:20.075Z,35.40
2022-11-25T23:00:50.745Z,38.60
2022-11-25T23:03:23.716Z,40.07
2022-11-25T23:05:55.023Z,38.43
2022-11-25T23:08:27.296Z,39.40
2022-11-25T23:11:00.680Z,35.50
2022-11-25T23:13:30.622Z,33.27
2022-11-25T23:16:02.730Z,36.13
2022-11-25T23:18:38.751Z,32.17
2022-11-25T23:21:10.251Z,31.93
2022-11-25T23:23:40.301Z,31.00
2022-11-25T23:26:16.475Z,31.40
2022-11-25T23:28:46.510Z,29.30
2022-11-25T23:31:19.174Z,30.33
2022-11-25T23:33:51.330Z,29.83
2022-11-25T23:36:27.578Z,31.47
2022-11-25T23:38:59.962Z,32.57
2022-11-25T23:41:34.331Z,29.20
2022-11-25T23:44:13.307Z,30.13
2022-11-25T23:46:44.272Z,31.20
2022-11-25T23:49:20.640Z,29.37
2022-11-25T23:51:50.735Z,29.87
2022-11-25T23:54:23.744Z,28.57
2022-11-25T23:56:56.386Z,28.10
2022-11-25T23:59:30.793Z,30.07
